createdAt,value
2018-06-28T00:00:12.697Z,99.90
2018-06-28T00:02:16.607Z,99.90
2018-06-28T00:04:20.404Z,99.90
2018-06-28T00:06:25.290Z,99.90
2018-06-28T00:08:29.224Z,99.90
2018-06-28T00:10:33.072Z,99.90
2018-06-28T00:12:37.016Z,99.90
2018-06-28T00:14:40.878Z,99.90
2018-06-28T00:16:45.789Z,99.90
2018-06-28T00:18:49.632Z,99.90
2018-06-28T00:20:53.486Z,99.90
2018-06-28T00:22:57.354Z,99.90
2018-06-28T00:25:01.248Z,99.90
2018-06-28T00:27:05.108Z,99.90
2018-06-28T00:29:08.890Z,99.90
2018-06-28T00:31:16.066Z,99.90
2018-06-28T00:33:19.910Z,99.90
2018-06-28T00:35:23.673Z,99.90
2018-06-28T00:37:29.620Z,99.90
2018-06-28T00:39:33.461Z,99.90
2018-06-28T00:41:37.341Z,99.90
2018-06-28T00:43:41.323Z,99.90
2018-06-28T00:45:45.028Z,99.90
2018-06-28T00:47:48.952Z,99.90
2018-06-28T00:49:52.675Z,99.90
2018-06-28T00:51:56.532Z,99.90
2018-06-28T00:54:00.357Z,99.90
2018-06-28T00:56:04.320Z,99.90
2018-06-28T00:58:08.157Z,99.90
2018-06-28T01:00:12.058Z,99.90
2018-06-28T01:02:15.848Z,99.90
2018-06-28T01:04:19.689Z,99.90
2018-06-28T01:06:23.599Z,99.90
2018-06-28T01:08:27.418Z,99.90
2018-06-28T01:10:31.193Z,99.90
2018-06-28T01:12:35.142Z,99.90
2018-06-28T01:14:38.927Z,99.90
2018-06-28T01:16:42.936Z,99.90
2018-06-28T01:18:46.702Z,99.90
2018-06-28T01:20:50.606Z,99.90
2018-06-28T01:22:54.465Z,99.90
2018-06-28T01:24:58.483Z,99.90
2018-06-28T01:27:02.292Z,99.90
2018-06-28T01:29:06.182Z,99.90
2018-06-28T01:31:09.969Z,99.90
2018-06-28T01:33:13.831Z,99.90
2018-06-28T01:35:17.682Z,99.90
2018-06-28T01:37:21.553Z,99.90
2018-06-28T01:39:25.551Z,99.90
2018-06-28T01:41:40.493Z,99.90
2018-06-28T01:43:45.354Z,99.90
2018-06-28T01:45:49.245Z,99.90
2018-06-28T01:49:56.595Z,99.90
2018-06-28T01:52:00.470Z,99.90
2018-06-28T01:54:04.220Z,99.90
2018-06-28T01:56:08.085Z,99.90
2018-06-28T01:58:11.876Z,99.90
2018-06-28T02:00:15.730Z,99.90
2018-06-28T02:02:19.527Z,99.90
2018-06-28T02:04:23.384Z,99.90
2018-06-28T02:06:27.291Z,99.90
2018-06-28T02:08:32.255Z,99.90
2018-06-28T02:10:36.325Z,99.90
2018-06-28T02:12:40.244Z,99.90
2018-06-28T02:14:44.097Z,99.90
2018-06-28T02:16:47.870Z,99.90
2018-06-28T02:18:51.700Z,99.90
2018-06-28T02:20:55.471Z,99.90
2018-06-28T02:22:59.350Z,99.90
2018-06-28T02:25:03.316Z,99.90
2018-06-28T02:27:07.289Z,99.90
2018-06-28T02:29:11.066Z,99.90
2018-06-28T02:31:15.102Z,99.90
2018-06-28T02:33:18.875Z,99.90
2018-06-28T02:35:22.740Z,99.90
2018-06-28T02:37:26.608Z,99.90
2018-06-28T02:39:30.398Z,99.90
2018-06-28T02:41:34.122Z,99.90
2018-06-28T02:43:38.107Z,99.90
2018-06-28T02:45:41.829Z,99.90
2018-06-28T02:47:45.764Z,99.90
2018-06-28T02:49:49.715Z,99.90
2018-06-28T02:51:53.543Z,99.90
2018-06-28T02:53:57.312Z,99.90
2018-06-28T02:56:01.180Z,99.90
2018-06-28T02:58:05.049Z,99.90
2018-06-28T03:00:08.978Z,99.90
2018-06-28T03:02:12.868Z,99.90
2018-06-28T03:04:16.687Z,99.90
2018-06-28T03:06:20.426Z,99.90
2018-06-28T03:08:24.329Z,99.90
2018-06-28T03:10:28.072Z,99.90
2018-06-28T03:12:31.979Z,99.90
2018-06-28T03:14:35.796Z,99.90
2018-06-28T03:16:39.726Z,99.90
2018-06-28T03:18:43.574Z,99.90
2018-06-28T03:20:47.481Z,99.90
2018-06-28T03:22:51.252Z,99.90
2018-06-28T03:24:55.090Z,99.90
2018-06-28T03:26:58.874Z,99.90
2018-06-28T03:29:02.675Z,99.90
2018-06-28T03:31:06.534Z,99.90
2018-06-28T03:33:10.320Z,99.90
2018-06-28T03:35:14.109Z,99.90
2018-06-28T03:37:17.914Z,99.90
2018-06-28T03:39:21.789Z,99.90
2018-06-28T03:41:25.660Z,99.90
2018-06-28T03:43:29.448Z,99.90
2018-06-28T03:45:33.284Z,99.90
2018-06-28T03:47:37.191Z,99.90
2018-06-28T03:49:41.091Z,99.90
2018-06-28T03:51:44.843Z,99.90
2018-06-28T03:53:48.674Z,99.90
2018-06-28T03:55:52.491Z,99.90
2018-06-28T03:57:57.398Z,99.90
2018-06-28T04:00:01.460Z,99.90
2018-06-28T04:02:05.323Z,99.90
2018-06-28T04:04:09.197Z,99.90
2018-06-28T04:08:16.940Z,99.90
2018-06-28T04:10:20.966Z,99.90
2018-06-28T04:12:24.751Z,99.90
2018-06-28T04:14:28.573Z,99.90
2018-06-28T04:16:32.398Z,99.90
2018-06-28T04:18:36.205Z,99.90
2018-06-28T04:20:40.157Z,99.90
2018-06-28T04:22:44.015Z,99.90
2018-06-28T04:24:47.785Z,99.90
2018-06-28T04:26:51.613Z,99.90
2018-06-28T04:28:55.551Z,99.90
2018-06-28T04:30:59.435Z,99.90
2018-06-28T04:33:03.259Z,99.90
2018-06-28T04:35:07.174Z,99.90
2018-06-28T04:37:10.941Z,99.90
2018-06-28T04:39:14.755Z,99.90
2018-06-28T04:41:18.538Z,99.90
2018-06-28T04:43:22.430Z,99.90
2018-06-28T04:45:26.207Z,99.90
2018-06-28T04:47:30.043Z,99.90
2018-06-28T04:49:33.794Z,99.90
2018-06-28T04:51:37.668Z,99.90
2018-06-28T04:53:41.381Z,99.90
2018-06-28T04:55:45.430Z,99.90
2018-06-28T04:57:49.240Z,99.90
2018-06-28T04:59:53.098Z,99.90
2018-06-28T05:01:56.956Z,99.90
2018-06-28T05:04:00.848Z,99.90
2018-06-28T05:06:04.994Z,99.90
2018-06-28T05:08:08.866Z,99.90
2018-06-28T05:10:12.669Z,99.90
2018-06-28T05:12:16.614Z,99.90
2018-06-28T05:14:20.444Z,99.90
2018-06-28T05:16:24.355Z,99.90
2018-06-28T05:18:28.184Z,99.90
2018-06-28T05:20:32.129Z,99.90
2018-06-28T05:22:35.904Z,99.90
2018-06-28T05:24:45.587Z,99.90
2018-06-28T05:26:49.697Z,99.90
2018-06-28T05:28:53.457Z,99.90
2018-06-28T05:30:57.484Z,99.90
2018-06-28T05:33:01.333Z,99.90
2018-06-28T05:35:05.798Z,99.90
2018-06-28T05:37:09.640Z,99.90
2018-06-28T05:39:13.475Z,99.90
2018-06-28T05:41:18.006Z,99.90
2018-06-28T05:43:23.073Z,99.90
2018-06-28T05:45:26.982Z,99.90
2018-06-28T05:47:30.766Z,99.90
2018-06-28T05:49:34.645Z,99.90
2018-06-28T05:51:38.394Z,99.90
2018-06-28T05:53:42.315Z,99.90
2018-06-28T05:55:46.166Z,99.90
2018-06-28T05:57:49.993Z,99.90
2018-06-28T05:59:53.740Z,99.90
2018-06-28T06:01:57.668Z,99.90
2018-06-28T06:04:01.499Z,99.90
2018-06-28T06:06:05.539Z,99.90
2018-06-28T06:08:09.325Z,99.90
2018-06-28T06:10:13.209Z,99.90
2018-06-28T06:12:17.019Z,99.90
2018-06-28T06:14:20.893Z,99.90
2018-06-28T06:16:24.658Z,99.90
2018-06-28T06:18:28.549Z,99.90
2018-06-28T06:20:32.359Z,99.90
2018-06-28T06:22:36.307Z,99.90
2018-06-28T06:24:40.087Z,99.90
2018-06-28T06:26:43.896Z,99.90
2018-06-28T06:28:47.640Z,99.90
2018-06-28T06:30:51.528Z,99.90
2018-06-28T06:32:55.248Z,99.90
2018-06-28T06:34:59.139Z,99.90
2018-06-28T06:37:02.993Z,99.90
2018-06-28T06:39:10.390Z,99.90
2018-06-28T06:41:14.404Z,99.90
2018-06-28T06:43:18.218Z,99.90
2018-06-28T06:45:22.114Z,99.90
2018-06-28T06:47:25.980Z,99.90
2018-06-28T06:49:29.867Z,99.90
2018-06-28T06:51:33.673Z,99.90
2018-06-28T06:53:37.515Z,99.90
2018-06-28T06:55:41.377Z,99.90
2018-06-28T06:57:45.371Z,99.90
2018-06-28T06:59:49.167Z,99.90
2018-06-28T07:01:53.064Z,99.90
2018-06-28T07:03:56.837Z,99.90
2018-06-28T07:06:00.780Z,99.90
2018-06-28T07:08:04.677Z,99.90
2018-06-28T07:10:08.658Z,99.90
2018-06-28T07:12:12.470Z,99.90
2018-06-28T07:14:16.316Z,99.90
2018-06-28T07:16:20.077Z,99.90
2018-06-28T07:18:23.966Z,99.90
2018-06-28T07:20:27.723Z,99.90
2018-06-28T07:22:31.559Z,99.90
2018-06-28T07:24:35.358Z,99.90
2018-06-28T07:26:39.229Z,99.90
2018-06-28T07:28:43.013Z,99.90
2018-06-28T07:30:46.876Z,99.90
2018-06-28T07:32:50.759Z,99.90
2018-06-28T07:34:54.838Z,99.90
2018-06-28T07:36:58.721Z,99.90
2018-06-28T07:39:02.720Z,99.90
2018-06-28T07:41:06.558Z,99.90
2018-06-28T07:43:10.407Z,99.90
2018-06-28T07:45:14.229Z,99.90
2018-06-28T07:47:18.139Z,99.90
2018-06-28T07:49:21.905Z,99.90
2018-06-28T07:51:25.877Z,99.90
2018-06-28T07:53:29.701Z,99.90
2018-06-28T07:55:33.589Z,99.90
2018-06-28T07:57:37.416Z,99.90
2018-06-28T07:59:41.305Z,99.90
2018-06-28T08:01:45.065Z,98.00
2018-06-28T08:03:49.216Z,99.90
2018-06-28T08:05:53.003Z,99.90
2018-06-28T08:07:56.828Z,98.70
2018-06-28T08:10:00.603Z,99.90
2018-06-28T08:12:04.521Z,99.80
2018-06-28T08:14:08.333Z,97.50
2018-06-28T08:16:12.157Z,97.60
2018-06-28T08:18:15.912Z,98.70
2018-06-28T08:20:19.833Z,98.90
2018-06-28T08:22:23.568Z,99.30
2018-06-28T08:24:27.399Z,97.50
2018-06-28T08:26:31.175Z,96.90
2018-06-28T08:28:35.002Z,97.50
2018-06-28T08:30:38.964Z,98.50
2018-06-28T08:32:42.860Z,96.70
2018-06-28T08:34:46.568Z,96.70
2018-06-28T08:36:50.450Z,96.10
2018-06-28T08:38:54.212Z,95.50
2018-06-28T08:40:58.222Z,94.50
2018-06-28T08:43:02.016Z,96.60
2018-06-28T08:45:06.005Z,97.20
2018-06-28T08:47:09.732Z,91.50
2018-06-28T08:49:13.562Z,91.80
2018-06-28T08:51:17.314Z,91.70
2018-06-28T08:53:21.212Z,91.80
2018-06-28T08:55:25.028Z,90.50
2018-06-28T08:57:28.859Z,90.10
2018-06-28T08:59:32.662Z,90.20
2018-06-28T09:01:36.678Z,91.90
2018-06-28T09:03:40.498Z,90.80
2018-06-28T09:05:44.552Z,90.10
2018-06-28T09:07:48.418Z,88.60
2018-06-28T09:09:52.351Z,88.80
2018-06-28T09:11:56.283Z,90.90
2018-06-28T09:14:00.160Z,86.70
2018-06-28T09:16:04.109Z,88.20
2018-06-28T09:18:08.004Z,88.80
2018-06-28T09:20:11.827Z,86.80
2018-06-28T09:22:15.835Z,86.40
2018-06-28T09:24:19.693Z,87.30
2018-06-28T09:26:23.660Z,86.00
2018-06-28T09:28:27.447Z,88.70
2018-06-28T09:30:31.307Z,84.90
2018-06-28T09:32:35.040Z,84.80
2018-06-28T09:34:38.925Z,82.00
2018-06-28T09:36:42.692Z,84.10
2018-06-28T09:38:46.494Z,82.80
2018-06-28T09:40:50.295Z,80.40
2018-06-28T09:42:54.205Z,79.10
2018-06-28T09:44:58.997Z,81.20
2018-06-28T09:47:03.006Z,81.50
2018-06-28T09:49:06.787Z,78.20
2018-06-28T09:51:10.746Z,79.20
2018-06-28T09:53:14.515Z,80.50
2018-06-28T09:55:18.673Z,80.20
2018-06-28T09:57:22.513Z,80.40
2018-06-28T09:59:26.424Z,77.50
2018-06-28T10:01:30.237Z,80.90
2018-06-28T10:03:34.096Z,74.20
2018-06-28T10:05:37.956Z,76.00
2018-06-28T10:07:41.888Z,76.40
2018-06-28T10:09:45.885Z,77.90
2018-06-28T10:11:49.738Z,77.40
2018-06-28T10:13:53.541Z,75.10
2018-06-28T10:15:57.368Z,77.90
2018-06-28T10:18:01.208Z,76.00
2018-06-28T10:20:05.194Z,78.60
2018-06-28T10:22:08.923Z,77.80
2018-06-28T10:26:16.261Z,76.60
2018-06-28T10:28:20.124Z,75.90
2018-06-28T10:30:23.993Z,78.10
2018-06-28T10:32:27.916Z,79.20
2018-06-28T10:34:31.692Z,76.90
2018-06-28T10:36:35.532Z,76.40
2018-06-28T10:38:39.313Z,77.60
2018-06-28T10:40:43.222Z,75.70
2018-06-28T10:42:46.979Z,77.00
2018-06-28T10:44:51.006Z,75.60
2018-06-28T10:46:54.793Z,74.90
2018-06-28T10:48:58.651Z,73.30
2018-06-28T10:51:02.400Z,75.50
2018-06-28T10:53:06.446Z,75.50
2018-06-28T10:55:10.218Z,74.90
2018-06-28T10:57:14.091Z,75.40
2018-06-28T10:59:17.901Z,77.40
2018-06-28T11:01:21.818Z,77.10
2018-06-28T11:03:25.624Z,76.30
2018-06-28T11:05:29.528Z,77.30
2018-06-28T11:07:33.348Z,74.10
2018-06-28T11:09:37.241Z,73.90
2018-06-28T11:11:41.486Z,75.90
2018-06-28T11:13:45.343Z,73.50
2018-06-28T11:15:49.156Z,73.30
2018-06-28T11:17:53.087Z,74.60
2018-06-28T11:19:56.872Z,73.30
2018-06-28T11:22:00.806Z,73.70
2018-06-28T11:24:04.664Z,78.20
2018-06-28T11:26:08.501Z,76.60
2018-06-28T11:28:12.258Z,74.10
2018-06-28T11:30:16.202Z,74.20
2018-06-28T11:32:20.012Z,71.70
2018-06-28T11:34:23.959Z,74.60
2018-06-28T11:36:27.722Z,75.50
2018-06-28T11:38:31.596Z,75.60
2018-06-28T11:40:35.330Z,75.10
2018-06-28T11:42:39.233Z,74.30
2018-06-28T11:44:42.962Z,74.10
2018-06-28T11:46:46.855Z,74.90
2018-06-28T11:48:50.693Z,75.20
2018-06-28T11:50:55.182Z,74.70
2018-06-28T11:52:59.059Z,75.20
2018-06-28T11:55:03.249Z,76.20
2018-06-28T11:57:07.122Z,72.60
2018-06-28T11:59:11.336Z,72.60
2018-06-28T12:01:15.235Z,73.50
2018-06-28T12:03:19.164Z,72.20
2018-06-28T12:05:23.113Z,72.50
2018-06-28T12:07:26.893Z,71.90
2018-06-28T12:09:30.711Z,72.90
2018-06-28T12:11:35.239Z,72.90
2018-06-28T12:13:39.233Z,73.80
2018-06-28T12:15:43.445Z,72.10
2018-06-28T12:17:47.220Z,72.30
2018-06-28T12:19:51.228Z,72.30
2018-06-28T12:21:55.020Z,74.30
2018-06-28T12:23:58.969Z,72.80
2018-06-28T12:26:02.752Z,74.10
2018-06-28T12:28:06.933Z,74.20
2018-06-28T12:30:10.672Z,71.60
2018-06-28T12:32:14.597Z,71.10
2018-06-28T12:34:18.495Z,73.20
2018-06-28T12:36:22.378Z,71.50
2018-06-28T12:38:26.214Z,73.60
2018-06-28T12:40:30.118Z,71.90
2018-06-28T12:42:33.958Z,72.90
2018-06-28T12:44:37.964Z,73.20
2018-06-28T12:48:22.819Z,72.80
2018-06-28T12:50:26.748Z,74.30
2018-06-28T12:52:40.359Z,73.60
2018-06-28T12:54:44.243Z,72.00
2018-06-28T12:56:50.715Z,71.10
2018-06-28T12:58:55.817Z,70.30
2018-06-28T13:00:59.697Z,71.40
2018-06-28T13:03:03.512Z,72.90
2018-06-28T13:05:07.592Z,74.80
2018-06-28T13:07:11.413Z,76.40
2018-06-28T13:09:16.905Z,76.00
2018-06-28T13:11:21.236Z,75.40
2018-06-28T13:13:25.137Z,73.10
2018-06-28T13:15:29.172Z,74.50
2018-06-28T13:17:33.106Z,72.40
2018-06-28T13:19:37.101Z,72.20
2018-06-28T13:21:41.030Z,71.10
2018-06-28T13:23:44.848Z,72.20
2018-06-28T13:25:48.620Z,73.80
2018-06-28T13:27:52.508Z,70.10
2018-06-28T13:29:56.341Z,71.60
2018-06-28T13:32:00.263Z,72.60
2018-06-28T13:34:04.102Z,71.40
2018-06-28T13:36:08.136Z,72.70
2018-06-28T13:38:11.958Z,71.30
2018-06-28T13:40:15.887Z,71.70
2018-06-28T13:42:19.845Z,70.70
2018-06-28T13:44:23.651Z,70.00
2018-06-28T13:46:27.511Z,71.90
2018-06-28T13:48:31.575Z,70.60
2018-06-28T13:50:35.395Z,70.80
2018-06-28T13:52:39.290Z,70.70
2018-06-28T13:54:43.113Z,71.70
2018-06-28T13:56:47.068Z,71.40
2018-06-28T13:58:51.137Z,71.40
2018-06-28T14:00:55.087Z,73.40
2018-06-28T14:02:59.039Z,71.30
2018-06-28T14:05:02.943Z,69.60
2018-06-28T14:07:08.798Z,70.50
2018-06-28T14:09:13.703Z,71.80
2018-06-28T14:11:17.825Z,70.30
2018-06-28T14:13:21.862Z,69.20
2018-06-28T14:15:25.697Z,71.20
2018-06-28T14:17:29.623Z,70.80
2018-06-28T14:19:33.479Z,67.60
2018-06-28T14:21:37.585Z,67.20
2018-06-28T14:23:41.463Z,68.60
2018-06-28T14:25:45.456Z,68.90
2018-06-28T14:27:49.271Z,69.50
2018-06-28T14:29:53.160Z,67.60
2018-06-28T14:31:58.016Z,68.40
2018-06-28T14:34:01.954Z,67.60
2018-06-28T14:36:05.859Z,67.30
2018-06-28T14:38:09.962Z,65.50
2018-06-28T14:40:13.797Z,66.90
2018-06-28T14:42:17.701Z,65.80
2018-06-28T14:44:22.206Z,66.90
2018-06-28T14:46:27.159Z,67.00
2018-06-28T14:48:31.019Z,66.70
2018-06-28T14:50:35.015Z,66.20
2018-06-28T14:52:38.901Z,65.70
2018-06-28T14:56:46.622Z,66.40
2018-06-28T14:58:54.314Z,66.40
2018-06-28T15:01:00.716Z,65.60
2018-06-28T15:03:04.747Z,66.00
2018-06-28T15:05:08.757Z,66.30
2018-06-28T15:07:12.685Z,66.40
2018-06-28T15:09:17.125Z,64.20
2018-06-28T15:11:21.063Z,65.20
2018-06-28T15:13:25.179Z,65.90
2018-06-28T15:15:29.259Z,65.70
2018-06-28T15:17:33.125Z,64.60
2018-06-28T15:19:37.190Z,63.40
2018-06-28T15:21:41.113Z,64.30
2018-06-28T15:23:45.543Z,64.60
2018-06-28T15:25:49.973Z,65.10
2018-06-28T15:27:54.159Z,64.20
2018-06-28T15:29:57.970Z,65.70
2018-06-28T15:32:02.071Z,66.30
2018-06-28T15:34:06.349Z,65.30
2018-06-28T15:36:10.315Z,65.90
2018-06-28T15:38:14.160Z,65.60
2018-06-28T15:40:18.099Z,65.80
2018-06-28T15:42:21.949Z,64.70
2018-06-28T15:44:26.317Z,67.10
2018-06-28T15:46:30.150Z,66.00
2018-06-28T15:48:34.136Z,67.10
2018-06-28T15:54:44.964Z,66.20
2018-06-28T15:56:48.962Z,65.20
2018-06-28T15:58:53.002Z,66.00
2018-06-28T16:00:56.857Z,65.50
2018-06-28T16:03:01.113Z,65.30
2018-06-28T16:05:05.004Z,65.10
2018-06-28T16:07:08.925Z,64.40
2018-06-28T16:09:12.966Z,65.60
2018-06-28T16:11:16.924Z,65.20
2018-06-28T16:13:20.928Z,65.40
2018-06-28T16:15:24.731Z,66.80
2018-06-28T16:17:29.779Z,65.80
2018-06-28T16:19:33.744Z,65.70
2018-06-28T16:21:37.538Z,64.70
2018-06-28T16:23:41.517Z,65.50
2018-06-28T16:25:45.531Z,65.20
2018-06-28T16:27:49.463Z,66.30
2018-06-28T16:29:53.249Z,67.00
2018-06-28T16:31:57.140Z,67.10
2018-06-28T16:34:01.157Z,66.40
2018-06-28T16:36:05.581Z,65.60
2018-06-28T16:38:09.383Z,66.60
2018-06-28T16:40:13.358Z,67.20
2018-06-28T16:42:17.153Z,66.20
2018-06-28T16:44:21.036Z,66.50
2018-06-28T16:46:24.951Z,67.80
2018-06-28T16:48:28.882Z,66.90
2018-06-28T16:50:32.728Z,67.70
2018-06-28T16:52:36.692Z,66.90
2018-06-28T16:54:40.437Z,66.40
2018-06-28T16:56:44.390Z,67.40
2018-06-28T16:58:48.162Z,66.80
2018-06-28T17:00:52.189Z,66.30
2018-06-28T17:02:55.948Z,67.20
2018-06-28T17:04:59.880Z,68.20
2018-06-28T17:07:03.790Z,66.60
2018-06-28T17:09:09.198Z,66.50
2018-06-28T17:11:13.093Z,68.00
2018-06-28T17:13:16.927Z,67.50
2018-06-28T17:15:20.916Z,68.20
2018-06-28T17:17:24.689Z,69.20
2018-06-28T17:19:28.547Z,68.20
2018-06-28T17:21:32.374Z,69.10
2018-06-28T17:23:37.271Z,69.50
2018-06-28T17:25:41.240Z,71.20
2018-06-28T17:27:45.175Z,70.30
2018-06-28T17:29:48.952Z,70.50
2018-06-28T17:31:52.932Z,70.00
2018-06-28T17:33:56.779Z,70.00
2018-06-28T17:36:00.672Z,70.70
2018-06-28T17:38:04.684Z,71.10
2018-06-28T17:40:08.731Z,69.80
2018-06-28T17:42:12.806Z,69.70
2018-06-28T17:44:16.682Z,69.20
2018-06-28T17:46:20.501Z,70.20
2018-06-28T17:48:26.608Z,69.70
2018-06-28T17:50:31.053Z,70.40
2018-06-28T17:52:34.836Z,69.20
2018-06-28T17:54:38.806Z,69.80
2018-06-28T17:56:42.634Z,69.10
2018-06-28T17:58:46.704Z,69.40
2018-06-28T18:00:50.941Z,68.90
2018-06-28T18:02:55.829Z,69.70
2018-06-28T18:05:02.747Z,70.60
2018-06-28T18:07:08.086Z,70.90
2018-06-28T18:09:42.125Z,71.20
2018-06-28T18:11:46.171Z,70.20
2018-06-28T18:13:49.980Z,70.30
2018-06-28T18:15:54.127Z,70.50
2018-06-28T18:17:57.993Z,71.60
2018-06-28T18:20:01.951Z,71.60
2018-06-28T18:22:05.846Z,71.00
2018-06-28T18:24:09.802Z,71.50
2018-06-28T18:26:13.600Z,71.90
2018-06-28T18:28:17.521Z,71.80
2018-06-28T18:30:21.487Z,73.20
2018-06-28T18:32:25.449Z,73.80
2018-06-28T18:34:29.485Z,72.70
2018-06-28T18:36:33.451Z,73.30
2018-06-28T18:38:37.525Z,73.70
2018-06-28T18:40:41.658Z,75.80
2018-06-28T18:42:45.609Z,73.80
2018-06-28T18:44:54.899Z,74.20
2018-06-28T18:46:59.363Z,74.50
2018-06-28T18:49:03.153Z,75.00
2018-06-28T18:51:07.482Z,75.70
2018-06-28T18:53:11.280Z,75.60
2018-06-28T18:55:15.278Z,75.70
2018-06-28T18:57:19.351Z,75.60
2018-06-28T18:59:23.667Z,76.80
2018-06-28T19:01:27.634Z,76.30
2018-06-28T19:03:31.689Z,77.00
2018-06-28T19:05:35.555Z,76.60
2018-06-28T19:07:39.486Z,77.70
2018-06-28T19:09:48.527Z,76.70
2018-06-28T19:11:54.302Z,77.50
2018-06-28T19:14:04.348Z,78.30
2018-06-28T19:16:13.718Z,78.70
2018-06-28T19:18:17.768Z,79.30
2018-06-28T19:20:21.551Z,78.60
2018-06-28T19:22:30.708Z,78.60
2018-06-28T19:24:34.775Z,78.80
2018-06-28T19:26:39.032Z,78.90
2018-06-28T19:28:46.123Z,79.50
2018-06-28T19:30:55.441Z,79.20
2018-06-28T19:33:04.553Z,79.60
2018-06-28T19:35:08.586Z,80.00
2018-06-28T19:37:16.719Z,80.50
2018-06-28T19:39:25.845Z,80.20
2018-06-28T19:41:35.144Z,80.50
2018-06-28T19:43:39.843Z,80.90
2018-06-28T19:45:43.882Z,81.00
2018-06-28T19:47:47.948Z,81.30
2018-06-28T19:49:57.919Z,81.90
2018-06-28T19:52:07.266Z,82.50
2018-06-28T19:54:11.154Z,81.90
2018-06-28T19:56:14.990Z,82.30
2018-06-28T19:58:18.922Z,83.20
2018-06-28T20:00:28.179Z,82.50
2018-06-28T20:02:37.306Z,82.70
2018-06-28T20:04:45.138Z,83.60
2018-06-28T20:06:49.043Z,83.80
2018-06-28T20:08:53.763Z,83.20
2018-06-28T20:10:57.647Z,84.10
2018-06-28T20:13:06.875Z,85.90
2018-06-28T20:15:16.324Z,84.70
2018-06-28T20:17:25.430Z,85.00
2018-06-28T20:21:38.221Z,84.90
2018-06-28T20:23:42.074Z,85.70
2018-06-28T20:25:46.080Z,85.40
2018-06-28T20:27:55.808Z,86.20
2018-06-28T20:30:04.876Z,86.70
2018-06-28T20:32:14.257Z,86.50
2018-06-28T20:34:18.244Z,87.20
2018-06-28T20:36:23.165Z,87.60
2018-06-28T20:38:26.996Z,88.20
2018-06-28T20:40:30.781Z,87.30
2018-06-28T20:42:34.641Z,87.70
2018-06-28T20:44:38.395Z,87.80
2018-06-28T20:46:42.306Z,90.10
2018-06-28T20:48:47.103Z,89.50
2018-06-28T20:50:51.292Z,89.40
2018-06-28T20:52:55.318Z,90.00
2018-06-28T20:54:59.222Z,89.50
2018-06-28T20:57:03.039Z,90.50
2018-06-28T20:59:07.147Z,89.90
2018-06-28T21:01:10.970Z,90.00
2018-06-28T21:03:14.873Z,91.20
2018-06-28T21:05:18.662Z,90.40
2018-06-28T21:07:22.754Z,90.10
2018-06-28T21:09:26.563Z,90.70
2018-06-28T21:11:30.833Z,90.30
2018-06-28T21:13:34.624Z,90.90
2018-06-28T21:15:38.514Z,90.80
2018-06-28T21:17:42.283Z,91.30
2018-06-28T21:19:46.264Z,91.40
2018-06-28T21:21:50.063Z,92.30
2018-06-28T21:23:53.977Z,91.60
2018-06-28T21:25:57.851Z,91.60
2018-06-28T21:28:01.822Z,92.00
2018-06-28T21:30:06.106Z,91.80
2018-06-28T21:32:10.092Z,91.60
2018-06-28T21:34:13.874Z,92.40
2018-06-28T21:36:17.808Z,92.40
2018-06-28T21:38:21.778Z,92.20
2018-06-28T21:40:25.707Z,92.50
2018-06-28T21:42:29.550Z,92.50
2018-06-28T21:44:33.572Z,92.40
2018-06-28T21:46:37.291Z,92.10
2018-06-28T21:48:41.333Z,92.40
2018-06-28T21:50:45.110Z,92.50
2018-06-28T21:52:49.024Z,92.50
2018-06-28T21:54:52.845Z,92.80
2018-06-28T21:56:56.851Z,93.10
2018-06-28T21:59:00.629Z,92.60
2018-06-28T22:01:04.592Z,92.70
2018-06-28T22:03:08.842Z,92.70
2018-06-28T22:05:12.784Z,92.80
2018-06-28T22:07:16.540Z,93.70
2018-06-28T22:09:21.019Z,93.20
2018-06-28T22:11:24.783Z,93.50
2018-06-28T22:13:28.702Z,93.70
2018-06-28T22:15:32.753Z,94.20
2018-06-28T22:17:36.707Z,94.00
2018-06-28T22:19:40.492Z,94.40
2018-06-28T22:21:44.463Z,94.20
2018-06-28T22:23:48.374Z,94.20
2018-06-28T22:25:52.305Z,94.50
2018-06-28T22:27:56.163Z,94.20
2018-06-28T22:30:00.072Z,94.80
2018-06-28T22:32:03.856Z,94.70
2018-06-28T22:34:07.776Z,94.50
2018-06-28T22:36:11.522Z,94.50
2018-06-28T22:38:15.520Z,94.50
2018-06-28T22:40:19.387Z,94.60
2018-06-28T22:42:23.287Z,94.70
2018-06-28T22:44:27.081Z,95.50
2018-06-28T22:46:30.955Z,95.50
2018-06-28T22:48:34.821Z,97.20
2018-06-28T22:50:38.708Z,96.10
2018-06-28T22:52:42.523Z,96.60
2018-06-28T22:54:46.398Z,96.40
2018-06-28T22:56:50.315Z,96.60
2018-06-28T22:58:54.204Z,97.30
2018-06-28T23:00:58.020Z,97.80
2018-06-28T23:03:01.961Z,97.90
2018-06-28T23:05:06.026Z,97.80
2018-06-28T23:07:09.969Z,96.90
2018-06-28T23:09:13.753Z,97.40
2018-06-28T23:11:17.648Z,97.40
2018-06-28T23:13:21.531Z,97.60
2018-06-28T23:15:25.409Z,97.40
2018-06-28T23:17:29.191Z,98.10
2018-06-28T23:19:33.143Z,97.70
2018-06-28T23:21:36.973Z,97.80
2018-06-28T23:23:40.952Z,98.00
2018-06-28T23:25:44.751Z,97.40
2018-06-28T23:27:49.496Z,97.40
2018-06-28T23:29:53.334Z,97.70
2018-06-28T23:31:57.200Z,97.80
2018-06-28T23:34:01.012Z,97.60
2018-06-28T23:36:05.131Z,97.80
2018-06-28T23:38:08.911Z,98.30
2018-06-28T23:40:12.762Z,97.70
2018-06-28T23:42:16.561Z,97.50
2018-06-28T23:44:20.413Z,97.80
2018-06-28T23:46:24.169Z,97.80
2018-06-28T23:48:28.072Z,97.80
2018-06-28T23:50:31.934Z,98.00
2018-06-28T23:52:35.946Z,97.80
2018-06-28T23:54:39.700Z,98.20
2018-06-28T23:56:43.578Z,97.90
2018-06-28T23:58:47.337Z,98.10
